PWSweather.com
Personal Weather Stations
Station Observations
BAYPARK
Bay Park, Ny, East Rockaway, NY 11518

Bay Park, NyEast Rockaway, NY 11518

Lat: 40.6310098, Lon: -73.6727287

Elevation: 11

Station Type: AcuRite Pro

https://www.awekas.at/en/instrument.php?id=14894

High Low Average
Temperature 82.1°F27.8°C 68.5°F20.3°C 74.4°F23.6°C
Dew Point 72.4°F22.4°C 67.3°F19.6°C 69.9°F21.1°C
Winds 5.3 mph 8.5 kmh Calm Calm 2.0 mph SW3.2 kmh SW
Wind Gusts 9.4 mph15.1 kmh -- 4.0 mph6.4 kmh
Humidity 98% 71% 86%
Pressure 30.04 in1017.3 mb 29.78 in1008.5 mb -
Precipitation 0.04 in1.0 mm - -
Hour Temp Dew Point Humidity Winds Wind Gusts Pressure Precip Precip Rate Daily Precip Total
12:00 AM 70.0°F21.1°C 68.5°F20.3°C 95% 0.4 mph N0.6 kmh N 2.2 mph3.5 kmh 30.04 in1017.3 mb 0.00 in0.0 mm 0.00 in0.0 mm 0.00 in0.0 mm
12:05 AM 70.0°F21.1°C 68.5°F20.3°C 95% 0.4 mph SW0.6 kmh SW 2.2 mph3.5 kmh 30.03 in1016.9 mb 0.00 in0.0 mm 0.00 in0.0 mm 0.00 in0.0 mm
12:10 AM 70.0°F21.1°C 68.4°F20.2°C 95% 0.5 mph WSW0.8 kmh WSW 2.2 mph3.5 kmh 30.03 in1016.9 mb 0.00 in0.0 mm 0.00 in0.0 mm 0.00 in0.0 mm
12:15 AM 70.0°F21.1°C 68.2°F20.1°C 94% 0.5 mph WSW0.8 kmh WSW 2.2 mph3.5 kmh 30.03 in1016.9 mb 0.00 in0.0 mm 0.00 in0.0 mm 0.00 in0.0 mm
12:20 AM 70.2°F21.2°C 68.4°F20.2°C 94% 0.7 mph SSW1.1 kmh SSW 3.2 mph5.1 kmh 30.03 in1016.9 mb 0.00 in0.0 mm 0.00 in0.0 mm 0.00 in0.0 mm
12:25 AM 70.2°F21.2°C 68.4°F20.2°C 94% 1.7 mph SW2.7 kmh SW 3.2 mph5.1 kmh 30.03 in1016.9 mb 0.00 in0.0 mm 0.00 in0.0 mm 0.00 in0.0 mm
12:30 AM 70.2°F21.2°C 68.4°F20.2°C 94% 0.5 mph SSW0.8 kmh SSW 2.2 mph3.5 kmh 30.03 in1016.9 mb 0.00 in0.0 mm 0.00 in0.0 mm 0.00 in0.0 mm
12:35 AM 70.2°F21.2°C 68.4°F20.2°C 94% 0.5 mph SW0.8 kmh SW 1.7 mph2.7 kmh 30.03 in1016.9 mb 0.00 in0.0 mm 0.00 in0.0 mm 0.00 in0.0 mm
12:40 AM 70.2°F21.2°C 68.4°F20.2°C 94% 0.1 mph SSW0.2 kmh SSW 1.1 mph1.8 kmh 30.02 in1016.6 mb 0.00 in0.0 mm 0.00 in0.0 mm 0.00 in0.0 mm
12:45 AM 70.1°F21.2°C 68.3°F20.2°C 94% Calm Calm -- 30.02 in1016.6 mb 0.00 in0.0 mm 0.00 in0.0 mm 0.00 in0.0 mm
12:50 AM 69.9°F21.1°C 68.1°F20.1°C 94% Calm Calm -- 30.02 in1016.6 mb 0.00 in0.0 mm 0.00 in0.0 mm 0.00 in0.0 mm
12:55 AM 69.7°F20.9°C 68.2°F20.1°C 95% Calm Calm -- 30.02 in1016.6 mb 0.00 in0.0 mm 0.00 in0.0 mm 0.00 in0.0 mm
01:00 AM 69.6°F20.9°C 68.2°F20.1°C 95% 0.1 mph S0.2 kmh S 1.1 mph1.8 kmh 30.02 in1016.6 mb 0.00 in0.0 mm 0.00 in0.0 mm 0.00 in0.0 mm
01:05 AM 69.5°F20.8°C 68.3°F20.2°C 96% 0.3 mph W0.5 kmh W 1.7 mph2.7 kmh 30.02 in1016.6 mb 0.00 in0.0 mm 0.00 in0.0 mm 0.00 in0.0 mm
01:10 AM 69.4°F20.8°C 68.2°F20.1°C 96% 0.1 mph S0.2 kmh S 1.7 mph2.7 kmh 30.02 in1016.6 mb 0.00 in0.0 mm 0.00 in0.0 mm 0.00 in0.0 mm
01:15 AM 69.3°F20.7°C 68.1°F20.1°C 96% Calm Calm -- 30.02 in1016.6 mb 0.00 in0.0 mm 0.00 in0.0 mm 0.00 in0.0 mm
01:20 AM 69.1°F20.6°C 67.9°F19.9°C 96% Calm Calm -- 30.02 in1016.6 mb 0.00 in0.0 mm 0.00 in0.0 mm 0.00 in0.0 mm
01:25 AM 69.1°F20.6°C 68.2°F20.1°C 97% 0.1 mph SSW0.2 kmh SSW 1.1 mph1.8 kmh 30.01 in1016.3 mb 0.00 in0.0 mm 0.00 in0.0 mm 0.00 in0.0 mm
01:30 AM 69.0°F20.6°C 68.1°F20.1°C 97% Calm Calm -- 30.01 in1016.3 mb 0.00 in0.0 mm 0.00 in0.0 mm 0.00 in0.0 mm
01:35 AM 68.9°F20.5°C 68.0°F20.0°C 97% Calm Calm -- 30.01 in1016.3 mb 0.00 in0.0 mm 0.00 in0.0 mm 0.00 in0.0 mm
01:40 AM 68.9°F20.5°C 68.3°F20.2°C 98% 0.2 mph N0.3 kmh N 1.7 mph2.7 kmh 30.01 in1016.3 mb 0.00 in0.0 mm 0.00 in0.0 mm 0.00 in0.0 mm
01:45 AM 68.9°F20.5°C 68.3°F20.2°C 98% Calm Calm -- 30.01 in1016.3 mb 0.00 in0.0 mm 0.00 in0.0 mm 0.00 in0.0 mm
01:50 AM 68.7°F20.4°C 68.1°F20.1°C 98% Calm Calm -- 30.00 in1015.9 mb 0.00 in0.0 mm 0.00 in0.0 mm 0.00 in0.0 mm
01:55 AM 68.6°F20.3°C 68.0°F20.0°C 98% Calm Calm -- 30.00 in1015.9 mb 0.00 in0.0 mm 0.00 in0.0 mm 0.00 in0.0 mm
02:00 AM 68.5°F20.3°C 67.9°F19.9°C 98% Calm Calm -- 30.00 in1015.9 mb 0.00 in0.0 mm 0.00 in0.0 mm 0.00 in0.0 mm
02:05 AM 68.5°F20.3°C 67.9°F19.9°C 98% Calm Calm -- 30.00 in1015.9 mb 0.00 in0.0 mm 0.00 in0.0 mm 0.00 in0.0 mm
02:10 AM 68.5°F20.3°C 67.9°F19.9°C 98% Calm Calm -- 30.00 in1015.9 mb 0.00 in0.0 mm 0.00 in0.0 mm 0.00 in0.0 mm
02:15 AM 68.6°F20.3°C 68.0°F20.0°C 98% 0.1 mph N0.2 kmh N 1.1 mph1.8 kmh 30.00 in1015.9 mb 0.00 in0.0 mm 0.00 in0.0 mm 0.00 in0.0 mm
02:20 AM 68.7°F20.4°C 68.1°F20.1°C 98% 0.7 mph SW1.1 kmh SW 2.7 mph4.3 kmh 30.00 in1015.9 mb 0.00 in0.0 mm 0.00 in0.0 mm 0.00 in0.0 mm
02:25 AM 68.9°F20.5°C 68.3°F20.2°C 98% 1.2 mph SW1.9 kmh SW 2.7 mph4.3 kmh 30.00 in1015.9 mb 0.00 in0.0 mm 0.00 in0.0 mm 0.00 in0.0 mm
02:30 AM 69.1°F20.6°C 68.4°F20.2°C 97% 0.9 mph SW1.4 kmh SW 2.7 mph4.3 kmh 29.99 in1015.6 mb 0.00 in0.0 mm 0.00 in0.0 mm 0.00 in0.0 mm
02:35 AM 69.3°F20.7°C 68.2°F20.1°C 96% 1.4 mph SW2.3 kmh SW 3.7 mph6.0 kmh 29.99 in1015.6 mb 0.00 in0.0 mm 0.00 in0.0 mm 0.00 in0.0 mm
02:40 AM 69.5°F20.8°C 68.0°F20.0°C 95% 1.3 mph SW2.1 kmh SW 2.7 mph4.3 kmh 29.99 in1015.6 mb 0.00 in0.0 mm 0.00 in0.0 mm 0.00 in0.0 mm
02:45 AM 69.6°F20.9°C 68.1°F20.1°C 95% 1.9 mph SW3.1 kmh SW 3.7 mph6.0 kmh 29.99 in1015.6 mb 0.00 in0.0 mm 0.00 in0.0 mm 0.00 in0.0 mm
02:50 AM 69.6°F20.9°C 68.1°F20.1°C 95% 1.0 mph SW1.6 kmh SW 3.7 mph6.0 kmh 29.99 in1015.6 mb 0.00 in0.0 mm 0.00 in0.0 mm 0.00 in0.0 mm
02:55 AM 69.6°F20.9°C 68.1°F20.1°C 95% Calm Calm -- 29.99 in1015.6 mb 0.00 in0.0 mm 0.00 in0.0 mm 0.00 in0.0 mm
03:00 AM 69.6°F20.9°C 68.1°F20.1°C 95% Calm Calm -- 29.99 in1015.6 mb 0.00 in0.0 mm 0.00 in0.0 mm 0.00 in0.0 mm
03:05 AM 69.6°F20.9°C 68.1°F20.1°C 95% 0.3 mph WSW0.5 kmh WSW 1.1 mph1.8 kmh 29.99 in1015.6 mb 0.00 in0.0 mm 0.00 in0.0 mm 0.00 in0.0 mm
03:10 AM 69.6°F20.9°C 67.9°F19.9°C 94% 1.1 mph SW1.8 kmh SW 3.2 mph5.1 kmh 29.99 in1015.6 mb 0.00 in0.0 mm 0.00 in0.0 mm 0.00 in0.0 mm
03:15 AM 69.6°F20.9°C 67.6°F19.8°C 94% 1.5 mph WSW2.4 kmh WSW 3.2 mph5.1 kmh 29.99 in1015.6 mb 0.00 in0.0 mm 0.00 in0.0 mm 0.00 in0.0 mm
03:20 AM 69.6°F20.9°C 67.5°F19.7°C 93% 0.9 mph WSW1.4 kmh WSW 3.2 mph5.1 kmh 29.99 in1015.6 mb 0.00 in0.0 mm 0.00 in0.0 mm 0.00 in0.0 mm
03:25 AM 69.6°F20.9°C 67.5°F19.7°C 93% 0.8 mph SW1.3 kmh SW 2.7 mph4.3 kmh 29.99 in1015.6 mb 0.00 in0.0 mm 0.00 in0.0 mm 0.00 in0.0 mm
03:30 AM 69.6°F20.9°C 67.5°F19.7°C 93% 0.7 mph SW1.1 kmh SW 2.7 mph4.3 kmh 29.99 in1015.6 mb 0.00 in0.0 mm 0.00 in0.0 mm 0.00 in0.0 mm
03:35 AM 69.6°F20.9°C 67.5°F19.7°C 93% 1.2 mph WSW1.9 kmh WSW 3.2 mph5.1 kmh 29.99 in1015.6 mb 0.00 in0.0 mm 0.00 in0.0 mm 0.00 in0.0 mm
03:40 AM 69.6°F20.9°C 67.5°F19.7°C 93% 2.1 mph SW3.4 kmh SW 4.2 mph6.8 kmh 29.98 in1015.2 mb 0.00 in0.0 mm 0.00 in0.0 mm 0.00 in0.0 mm
03:45 AM 69.6°F20.9°C 67.5°F19.7°C 93% 2.4 mph SW3.9 kmh SW 4.2 mph6.8 kmh 29.98 in1015.2 mb 0.00 in0.0 mm 0.00 in0.0 mm 0.00 in0.0 mm
03:50 AM 69.8°F21.0°C 67.7°F19.8°C 93% 2.6 mph SW4.2 kmh SW 4.2 mph6.8 kmh 29.98 in1015.2 mb 0.00 in0.0 mm 0.00 in0.0 mm 0.00 in0.0 mm
03:55 AM 69.8°F21.0°C 67.7°F19.8°C 93% 1.4 mph WSW2.3 kmh WSW 3.2 mph5.1 kmh 29.98 in1015.2 mb 0.00 in0.0 mm 0.00 in0.0 mm 0.00 in0.0 mm
04:00 AM 69.8°F21.0°C 67.7°F19.8°C 93% 1.4 mph SW2.3 kmh SW 2.7 mph4.3 kmh 29.98 in1015.2 mb 0.00 in0.0 mm 0.00 in0.0 mm 0.00 in0.0 mm
04:05 AM 69.8°F21.0°C 67.7°F19.8°C 93% 0.9 mph SW1.4 kmh SW 3.7 mph6.0 kmh 29.98 in1015.2 mb 0.00 in0.0 mm 0.00 in0.0 mm 0.00 in0.0 mm
04:10 AM 69.7°F20.9°C 67.5°F19.7°C 93% 0.5 mph WSW0.8 kmh WSW 1.7 mph2.7 kmh 29.98 in1015.2 mb 0.00 in0.0 mm 0.00 in0.0 mm 0.00 in0.0 mm
04:15 AM 69.6°F20.9°C 67.5°F19.7°C 93% 0.6 mph WSW1.0 kmh WSW 2.2 mph3.5 kmh 29.98 in1015.2 mb 0.00 in0.0 mm 0.00 in0.0 mm 0.00 in0.0 mm
04:20 AM 69.6°F20.9°C 67.5°F19.7°C 93% 0.8 mph WSW1.3 kmh WSW 2.2 mph3.5 kmh 29.98 in1015.2 mb 0.00 in0.0 mm 0.00 in0.0 mm 0.00 in0.0 mm
04:25 AM 69.6°F20.9°C 67.5°F19.7°C 93% 0.3 mph WSW0.5 kmh WSW 1.7 mph2.7 kmh 29.98 in1015.2 mb 0.00 in0.0 mm 0.00 in0.0 mm 0.00 in0.0 mm
04:30 AM 69.5°F20.8°C 67.4°F19.7°C 93% 0.1 mph N0.2 kmh N 1.1 mph1.8 kmh 29.98 in1015.2 mb 0.00 in0.0 mm 0.00 in0.0 mm 0.00 in0.0 mm
04:35 AM 69.4°F20.8°C 67.3°F19.6°C 93% Calm Calm -- 29.98 in1015.2 mb 0.00 in0.0 mm 0.00 in0.0 mm 0.00 in0.0 mm
04:40 AM 69.4°F20.8°C 67.3°F19.6°C 93% 2.6 mph SW4.2 kmh SW 4.2 mph6.8 kmh 29.98 in1015.2 mb 0.00 in0.0 mm 0.00 in0.0 mm 0.00 in0.0 mm
04:45 AM 69.4°F20.8°C 67.5°F19.7°C 94% 1.0 mph SSW1.6 kmh SSW 3.2 mph5.1 kmh 29.99 in1015.6 mb 0.00 in0.0 mm 0.00 in0.0 mm 0.00 in0.0 mm
04:50 AM 69.4°F20.8°C 67.6°F19.8°C 94% 0.6 mph SSW1.0 kmh SSW 2.2 mph3.5 kmh 29.98 in1015.2 mb 0.00 in0.0 mm 0.00 in0.0 mm 0.00 in0.0 mm
04:55 AM 69.4°F20.8°C 67.6°F19.8°C 94% 1.3 mph WSW2.1 kmh WSW 3.7 mph6.0 kmh 29.98 in1015.2 mb 0.00 in0.0 mm 0.00 in0.0 mm 0.00 in0.0 mm
05:00 AM 69.4°F20.8°C 67.6°F19.8°C 94% 2.0 mph SW3.2 kmh SW 3.7 mph6.0 kmh 29.98 in1015.2 mb 0.00 in0.0 mm 0.00 in0.0 mm 0.00 in0.0 mm
05:05 AM 69.4°F20.8°C 67.6°F19.8°C 94% 2.7 mph SSW4.3 kmh SSW 4.7 mph7.6 kmh 29.98 in1015.2 mb 0.00 in0.0 mm 0.00 in0.0 mm 0.00 in0.0 mm
05:10 AM 69.4°F20.8°C 67.6°F19.8°C 94% 2.0 mph SW3.2 kmh SW 3.7 mph6.0 kmh 29.98 in1015.2 mb 0.00 in0.0 mm 0.00 in0.0 mm 0.00 in0.0 mm
05:15 AM 69.4°F20.8°C 67.6°F19.8°C 94% 1.0 mph SW1.6 kmh SW 2.7 mph4.3 kmh 29.98 in1015.2 mb 0.00 in0.0 mm 0.00 in0.0 mm 0.00 in0.0 mm
05:20 AM 69.3°F20.7°C 67.5°F19.7°C 94% 1.5 mph SSW2.4 kmh SSW 3.2 mph5.1 kmh 29.98 in1015.2 mb 0.00 in0.0 mm 0.00 in0.0 mm 0.00 in0.0 mm
05:25 AM 69.3°F20.7°C 67.5°F19.7°C 94% 1.7 mph SW2.7 kmh SW 3.7 mph6.0 kmh 29.98 in1015.2 mb 0.00 in0.0 mm 0.00 in0.0 mm 0.00 in0.0 mm
05:30 AM 69.3°F20.7°C 67.6°F19.8°C 94% 1.4 mph SW2.3 kmh SW 4.2 mph6.8 kmh 29.98 in1015.2 mb 0.00 in0.0 mm 0.00 in0.0 mm 0.00 in0.0 mm
05:35 AM 69.3°F20.7°C 67.8°F19.9°C 95% 1.2 mph SW1.9 kmh SW 3.2 mph5.1 kmh 29.98 in1015.2 mb 0.00 in0.0 mm 0.00 in0.0 mm 0.00 in0.0 mm
05:40 AM 69.3°F20.7°C 67.8°F19.9°C 95% 2.5 mph SW4.0 kmh SW 3.7 mph6.0 kmh 29.97 in1014.9 mb 0.00 in0.0 mm 0.00 in0.0 mm 0.00 in0.0 mm
05:45 AM 69.3°F20.7°C 67.8°F19.9°C 95% 1.5 mph SW2.4 kmh SW 3.2 mph5.1 kmh 29.97 in1014.9 mb 0.00 in0.0 mm 0.00 in0.0 mm 0.00 in0.0 mm
05:50 AM 69.3°F20.7°C 67.8°F19.9°C 95% 1.9 mph SW3.1 kmh SW 4.2 mph6.8 kmh 29.97 in1014.9 mb 0.00 in0.0 mm 0.00 in0.0 mm 0.00 in0.0 mm
05:55 AM 69.3°F20.7°C 67.8°F19.9°C 95% 1.7 mph WSW2.7 kmh WSW 2.7 mph4.3 kmh 29.97 in1014.9 mb 0.00 in0.0 mm 0.00 in0.0 mm 0.00 in0.0 mm
06:00 AM 69.3°F20.7°C 67.8°F19.9°C 95% 1.6 mph SW2.6 kmh SW 3.2 mph5.1 kmh 29.97 in1014.9 mb 0.00 in0.0 mm 0.00 in0.0 mm 0.00 in0.0 mm
06:05 AM 69.3°F20.7°C 67.8°F19.9°C 95% 2.4 mph SW3.9 kmh SW 3.7 mph6.0 kmh 29.97 in1014.9 mb 0.00 in0.0 mm 0.00 in0.0 mm 0.00 in0.0 mm
06:10 AM 69.3°F20.7°C 67.8°F19.9°C 95% 2.0 mph SW3.2 kmh SW 3.2 mph5.1 kmh 29.97 in1014.9 mb 0.00 in0.0 mm 0.00 in0.0 mm 0.00 in0.0 mm
06:15 AM 69.3°F20.7°C 67.8°F19.9°C 95% 1.7 mph SW2.7 kmh SW 2.7 mph4.3 kmh 29.97 in1014.9 mb 0.00 in0.0 mm 0.00 in0.0 mm 0.00 in0.0 mm
06:20 AM 69.4°F20.8°C 67.9°F19.9°C 95% 2.1 mph SW3.4 kmh SW 4.2 mph6.8 kmh 29.97 in1014.9 mb 0.00 in0.0 mm 0.00 in0.0 mm 0.00 in0.0 mm
06:25 AM 69.5°F20.8°C 68.0°F20.0°C 95% 2.5 mph WSW4.0 kmh WSW 4.2 mph6.8 kmh 29.97 in1014.9 mb 0.00 in0.0 mm 0.00 in0.0 mm 0.00 in0.0 mm
06:30 AM 69.7°F20.9°C 68.2°F20.1°C 95% 2.6 mph SW4.2 kmh SW 4.2 mph6.8 kmh 29.97 in1014.9 mb 0.00 in0.0 mm 0.00 in0.0 mm 0.00 in0.0 mm
06:35 AM 69.8°F21.0°C 68.0°F20.0°C 94% 2.5 mph SW4.0 kmh SW 3.7 mph6.0 kmh 29.97 in1014.9 mb 0.00 in0.0 mm 0.00 in0.0 mm 0.00 in0.0 mm
06:40 AM 69.9°F21.1°C 68.0°F20.0°C 94% 1.8 mph WSW2.9 kmh WSW 4.2 mph6.8 kmh 29.97 in1014.9 mb 0.00 in0.0 mm 0.00 in0.0 mm 0.00 in0.0 mm
06:45 AM 70.1°F21.2°C 68.3°F20.2°C 94% 1.5 mph SW2.4 kmh SW 4.2 mph6.8 kmh 29.97 in1014.9 mb 0.00 in0.0 mm 0.00 in0.0 mm 0.00 in0.0 mm
06:50 AM 70.2°F21.2°C 68.4°F20.2°C 94% 1.4 mph WSW2.3 kmh WSW 2.7 mph4.3 kmh 29.97 in1014.9 mb 0.00 in0.0 mm 0.00 in0.0 mm 0.00 in0.0 mm
06:55 AM 70.3°F21.3°C 68.2°F20.1°C 93% 2.3 mph SW3.7 kmh SW 4.7 mph7.6 kmh 29.97 in1014.9 mb 0.00 in0.0 mm 0.00 in0.0 mm 0.00 in0.0 mm
07:00 AM 70.6°F21.4°C 68.4°F20.2°C 93% 2.6 mph SW4.2 kmh SW 4.2 mph6.8 kmh 29.97 in1014.9 mb 0.00 in0.0 mm 0.00 in0.0 mm 0.00 in0.0 mm
07:05 AM 70.8°F21.6°C 68.4°F20.2°C 92% 2.2 mph WSW3.5 kmh WSW 4.2 mph6.8 kmh 29.97 in1014.9 mb 0.00 in0.0 mm 0.00 in0.0 mm 0.00 in0.0 mm
07:10 AM 71.1°F21.7°C 68.5°F20.3°C 92% 2.5 mph WSW4.0 kmh WSW 3.7 mph6.0 kmh 29.97 in1014.9 mb 0.00 in0.0 mm 0.00 in0.0 mm 0.00 in0.0 mm
07:15 AM 71.2°F21.8°C 68.3°F20.2°C 91% 3.6 mph SW5.8 kmh SW 5.8 mph9.3 kmh 29.97 in1014.9 mb 0.00 in0.0 mm 0.00 in0.0 mm 0.00 in0.0 mm
07:20 AM 71.4°F21.9°C 68.4°F20.2°C 90% 3.0 mph SSW4.8 kmh SSW 4.2 mph6.8 kmh 29.97 in1014.9 mb 0.00 in0.0 mm 0.00 in0.0 mm 0.00 in0.0 mm
07:25 AM 71.8°F22.1°C 68.5°F20.3°C 90% 1.7 mph WSW2.7 kmh WSW 4.2 mph6.8 kmh 29.97 in1014.9 mb 0.00 in0.0 mm 0.00 in0.0 mm 0.00 in0.0 mm
07:30 AM 71.8°F22.1°C 68.4°F20.2°C 89% 2.8 mph SW4.5 kmh SW 5.8 mph9.3 kmh 29.97 in1014.9 mb 0.00 in0.0 mm 0.00 in0.0 mm 0.00 in0.0 mm
07:35 AM 71.9°F22.2°C 68.5°F20.3°C 89% 2.3 mph WSW3.7 kmh WSW 4.2 mph6.8 kmh 29.97 in1014.9 mb 0.00 in0.0 mm 0.00 in0.0 mm 0.00 in0.0 mm
07:40 AM 72.1°F22.3°C 68.6°F20.3°C 89% 1.7 mph WSW2.7 kmh WSW 3.7 mph6.0 kmh 29.97 in1014.9 mb 0.00 in0.0 mm 0.00 in0.0 mm 0.00 in0.0 mm
07:45 AM 72.1°F22.3°C 68.3°F20.2°C 88% 2.6 mph SW4.2 kmh SW 3.7 mph6.0 kmh 29.97 in1014.9 mb 0.00 in0.0 mm 0.00 in0.0 mm 0.00 in0.0 mm
07:50 AM 72.2°F22.3°C 68.4°F20.2°C 88% 3.3 mph SW5.3 kmh SW 4.7 mph7.6 kmh 29.97 in1014.9 mb 0.00 in0.0 mm 0.00 in0.0 mm 0.00 in0.0 mm
07:55 AM 72.4°F22.4°C 68.6°F20.3°C 88% 2.9 mph WSW4.7 kmh WSW 5.8 mph9.3 kmh 29.97 in1014.9 mb 0.00 in0.0 mm 0.00 in0.0 mm 0.00 in0.0 mm
08:00 AM 72.8°F22.7°C 68.8°F20.4°C 87% 2.9 mph WSW4.7 kmh WSW 4.7 mph7.6 kmh 29.97 in1014.9 mb 0.00 in0.0 mm 0.00 in0.0 mm 0.00 in0.0 mm
08:05 AM 73.0°F22.8°C 68.7°F20.4°C 87% 3.1 mph SW5.0 kmh SW 5.3 mph8.5 kmh 29.97 in1014.9 mb 0.00 in0.0 mm 0.00 in0.0 mm 0.00 in0.0 mm
08:10 AM 73.2°F22.9°C 68.8°F20.4°C 86% 2.2 mph SW3.5 kmh SW 3.7 mph6.0 kmh 29.97 in1014.9 mb 0.00 in0.0 mm 0.00 in0.0 mm 0.00 in0.0 mm
08:15 AM 73.3°F22.9°C 68.9°F20.5°C 86% 1.6 mph WSW2.6 kmh WSW 3.7 mph6.0 kmh 29.97 in1014.9 mb 0.00 in0.0 mm 0.00 in0.0 mm 0.00 in0.0 mm
08:20 AM 73.0°F22.8°C 68.6°F20.3°C 86% 2.8 mph WSW4.5 kmh WSW 4.7 mph7.6 kmh 29.97 in1014.9 mb 0.00 in0.0 mm 0.00 in0.0 mm 0.00 in0.0 mm
08:25 AM 72.9°F22.7°C 68.5°F20.3°C 86% 2.4 mph SW3.9 kmh SW 4.7 mph7.6 kmh 29.97 in1014.9 mb 0.00 in0.0 mm 0.00 in0.0 mm 0.00 in0.0 mm
08:30 AM 72.7°F22.6°C 68.4°F20.2°C 86% 1.4 mph SW2.3 kmh SW 3.7 mph6.0 kmh 29.97 in1014.9 mb 0.00 in0.0 mm 0.00 in0.0 mm 0.00 in0.0 mm
08:35 AM 72.5°F22.5°C 68.4°F20.2°C 87% 1.6 mph SW2.6 kmh SW 3.7 mph6.0 kmh 29.97 in1014.9 mb 0.00 in0.0 mm 0.00 in0.0 mm 0.00 in0.0 mm
08:40 AM 72.7°F22.6°C 68.6°F20.3°C 87% 1.8 mph WSW2.9 kmh WSW 3.2 mph5.1 kmh 29.97 in1014.9 mb 0.00 in0.0 mm 0.00 in0.0 mm 0.00 in0.0 mm
08:45 AM 72.9°F22.7°C 68.8°F20.4°C 87% 1.0 mph WSW1.6 kmh WSW 3.7 mph6.0 kmh 29.97 in1014.9 mb 0.00 in0.0 mm 0.00 in0.0 mm 0.00 in0.0 mm
08:50 AM 72.8°F22.7°C 68.7°F20.4°C 87% 2.1 mph WSW3.4 kmh WSW 4.2 mph6.8 kmh 29.97 in1014.9 mb 0.00 in0.0 mm 0.00 in0.0 mm 0.00 in0.0 mm
08:55 AM 72.9°F22.7°C 68.9°F20.5°C 87% 1.6 mph WSW2.6 kmh WSW 2.7 mph4.3 kmh 29.96 in1014.6 mb 0.00 in0.0 mm 0.00 in0.0 mm 0.00 in0.0 mm
09:00 AM 73.3°F22.9°C 69.1°F20.6°C 87% 2.0 mph SW3.2 kmh SW 3.7 mph6.0 kmh 29.96 in1014.6 mb 0.00 in0.0 mm 0.00 in0.0 mm 0.00 in0.0 mm
09:05 AM 74.1°F23.4°C 69.5°F20.8°C 86% 1.8 mph SW2.9 kmh SW 4.7 mph7.6 kmh 29.96 in1014.6 mb 0.00 in0.0 mm 0.00 in0.0 mm 0.00 in0.0 mm
09:10 AM 74.3°F23.5°C 69.2°F20.7°C 84% 2.2 mph SW3.5 kmh SW 4.2 mph6.8 kmh 29.96 in1014.6 mb 0.00 in0.0 mm 0.00 in0.0 mm 0.00 in0.0 mm
09:15 AM 74.5°F23.6°C 69.6°F20.9°C 85% 2.3 mph S3.7 kmh S 4.7 mph7.6 kmh 29.96 in1014.6 mb 0.00 in0.0 mm 0.00 in0.0 mm 0.00 in0.0 mm
09:20 AM 75.4°F24.1°C 69.9°F21.1°C 83% 2.2 mph SW3.5 kmh SW 4.2 mph6.8 kmh 29.96 in1014.6 mb 0.00 in0.0 mm 0.00 in0.0 mm 0.00 in0.0 mm
09:25 AM 75.7°F24.3°C 69.8°F21.0°C 82% 3.3 mph SW5.3 kmh SW 5.8 mph9.3 kmh 29.96 in1014.6 mb 0.00 in0.0 mm 0.00 in0.0 mm 0.00 in0.0 mm
09:30 AM 76.0°F24.4°C 69.8°F21.0°C 81% 2.6 mph SW4.2 kmh SW 4.2 mph6.8 kmh 29.96 in1014.6 mb 0.00 in0.0 mm 0.00 in0.0 mm 0.00 in0.0 mm
09:35 AM 75.5°F24.2°C 69.4°F20.8°C 82% 2.3 mph WSW3.7 kmh WSW 5.3 mph8.5 kmh 29.96 in1014.6 mb 0.00 in0.0 mm 0.00 in0.0 mm 0.00 in0.0 mm
09:40 AM 76.2°F24.6°C 69.8°F21.0°C 81% 2.0 mph SW3.2 kmh SW 4.2 mph6.8 kmh 29.95 in1014.2 mb 0.00 in0.0 mm 0.00 in0.0 mm 0.00 in0.0 mm
09:45 AM 76.4°F24.7°C 69.7°F20.9°C 80% 1.5 mph SW2.4 kmh SW 3.2 mph5.1 kmh 29.95 in1014.2 mb 0.00 in0.0 mm 0.00 in0.0 mm 0.00 in0.0 mm
09:50 AM 76.6°F24.8°C 69.9°F21.1°C 80% 2.6 mph WSW4.2 kmh WSW 4.7 mph7.6 kmh 29.95 in1014.2 mb 0.00 in0.0 mm 0.00 in0.0 mm 0.00 in0.0 mm
09:55 AM 76.8°F24.9°C 69.8°F21.0°C 79% 2.1 mph SW3.4 kmh SW 5.3 mph8.5 kmh 29.95 in1014.2 mb 0.00 in0.0 mm 0.00 in0.0 mm 0.00 in0.0 mm
10:00 AM 76.5°F24.7°C 69.7°F20.9°C 80% 2.6 mph WSW4.2 kmh WSW 4.2 mph6.8 kmh 29.95 in1014.2 mb 0.00 in0.0 mm 0.00 in0.0 mm 0.00 in0.0 mm
10:05 AM 77.6°F25.3°C 70.2°F21.2°C 78% 2.7 mph SW4.3 kmh SW 5.3 mph8.5 kmh 29.94 in1013.9 mb 0.00 in0.0 mm 0.00 in0.0 mm 0.00 in0.0 mm
10:10 AM 77.8°F25.4°C 70.2°F21.2°C 78% 2.6 mph SW4.2 kmh SW 4.7 mph7.6 kmh 29.94 in1013.9 mb 0.00 in0.0 mm 0.00 in0.0 mm 0.00 in0.0 mm
10:15 AM 78.0°F25.6°C 70.4°F21.3°C 78% 2.2 mph SSW3.5 kmh SSW 4.7 mph7.6 kmh 29.94 in1013.9 mb 0.00 in0.0 mm 0.00 in0.0 mm 0.00 in0.0 mm
10:20 AM 78.5°F25.8°C 70.3°F21.3°C 76% 2.1 mph SW3.4 kmh SW 3.7 mph6.0 kmh 29.94 in1013.9 mb 0.00 in0.0 mm 0.00 in0.0 mm 0.00 in0.0 mm
10:25 AM 78.7°F25.9°C 70.5°F21.4°C 76% 1.8 mph W2.9 kmh W 3.7 mph6.0 kmh 29.94 in1013.9 mb 0.00 in0.0 mm 0.00 in0.0 mm 0.00 in0.0 mm
10:30 AM 79.1°F26.2°C 70.8°F21.6°C 76% 2.0 mph WSW3.2 kmh WSW 3.7 mph6.0 kmh 29.94 in1013.9 mb 0.00 in0.0 mm 0.00 in0.0 mm 0.00 in0.0 mm
10:35 AM 79.1°F26.2°C 70.9°F21.6°C 76% 1.7 mph SW2.7 kmh SW 3.7 mph6.0 kmh 29.94 in1013.9 mb 0.00 in0.0 mm 0.00 in0.0 mm 0.00 in0.0 mm
10:40 AM 79.3°F26.3°C 70.7°F21.5°C 75% 2.9 mph WSW4.7 kmh WSW 5.3 mph8.5 kmh 29.94 in1013.9 mb 0.00 in0.0 mm 0.00 in0.0 mm 0.00 in0.0 mm
10:45 AM 79.4°F26.3°C 70.7°F21.5°C 75% 2.3 mph SW3.7 kmh SW 3.7 mph6.0 kmh 29.93 in1013.5 mb 0.00 in0.0 mm 0.00 in0.0 mm 0.00 in0.0 mm
10:50 AM 79.7°F26.5°C 71.1°F21.7°C 75% 2.3 mph SSW3.7 kmh SSW 3.7 mph6.0 kmh 29.93 in1013.5 mb 0.00 in0.0 mm 0.00 in0.0 mm 0.00 in0.0 mm
10:55 AM 79.8°F26.6°C 71.1°F21.7°C 75% 2.4 mph SW3.9 kmh SW 3.7 mph6.0 kmh 29.93 in1013.5 mb 0.00 in0.0 mm 0.00 in0.0 mm 0.00 in0.0 mm
11:00 AM 80.0°F26.7°C 71.0°F21.7°C 74% 2.7 mph SW4.3 kmh SW 4.7 mph7.6 kmh 29.93 in1013.5 mb 0.00 in0.0 mm 0.00 in0.0 mm 0.00 in0.0 mm
11:05 AM 80.3°F26.8°C 71.2°F21.8°C 74% 3.2 mph SW5.1 kmh SW 4.7 mph7.6 kmh 29.92 in1013.2 mb 0.00 in0.0 mm 0.00 in0.0 mm 0.00 in0.0 mm
11:10 AM 80.5°F26.9°C 71.4°F21.9°C 74% 2.2 mph SW3.5 kmh SW 5.8 mph9.3 kmh 29.92 in1013.2 mb 0.00 in0.0 mm 0.00 in0.0 mm 0.00 in0.0 mm
11:15 AM 80.7°F27.1°C 71.4°F21.9°C 73% 2.6 mph SW4.2 kmh SW 4.7 mph7.6 kmh 29.92 in1013.2 mb 0.00 in0.0 mm 0.00 in0.0 mm 0.00 in0.0 mm
11:20 AM 81.2°F27.3°C 71.7°F22.1°C 73% 3.0 mph SW4.8 kmh SW 4.7 mph7.6 kmh 29.92 in1013.2 mb 0.00 in0.0 mm 0.00 in0.0 mm 0.00 in0.0 mm
11:25 AM 81.4°F27.4°C 71.3°F21.8°C 72% 3.3 mph SSW5.3 kmh SSW 5.8 mph9.3 kmh 29.92 in1013.2 mb 0.00 in0.0 mm 0.00 in0.0 mm 0.00 in0.0 mm
11:30 AM 81.4°F27.4°C 71.2°F21.8°C 71% 2.7 mph SW4.3 kmh SW 4.7 mph7.6 kmh 29.91 in1012.9 mb 0.00 in0.0 mm 0.00 in0.0 mm 0.00 in0.0 mm
11:35 AM 81.1°F27.3°C 71.0°F21.7°C 72% 3.2 mph SW5.1 kmh SW 6.3 mph10.1 kmh 29.91 in1012.9 mb 0.00 in0.0 mm 0.00 in0.0 mm 0.00 in0.0 mm
11:40 AM 80.9°F27.2°C 71.0°F21.7°C 72% 3.5 mph SW5.6 kmh SW 4.7 mph7.6 kmh 29.91 in1012.9 mb 0.00 in0.0 mm 0.00 in0.0 mm 0.00 in0.0 mm
11:45 AM 81.4°F27.4°C 71.2°F21.8°C 71% 2.6 mph WSW4.2 kmh WSW 5.3 mph8.5 kmh 29.91 in1012.9 mb 0.00 in0.0 mm 0.00 in0.0 mm 0.00 in0.0 mm
11:50 AM 81.5°F27.5°C 71.1°F21.7°C 71% 3.2 mph SW5.1 kmh SW 4.7 mph7.6 kmh 29.91 in1012.9 mb 0.00 in0.0 mm 0.00 in0.0 mm 0.00 in0.0 mm
11:55 AM 81.9°F27.7°C 71.5°F21.9°C 71% 2.6 mph SW4.2 kmh SW 3.7 mph6.0 kmh 29.91 in1012.9 mb 0.00 in0.0 mm 0.00 in0.0 mm 0.00 in0.0 mm
12:00 PM 81.7°F27.6°C 71.4°F21.9°C 71% 2.4 mph SW3.9 kmh SW 4.2 mph6.8 kmh 29.90 in1012.5 mb 0.00 in0.0 mm 0.00 in0.0 mm 0.00 in0.0 mm
12:05 PM 81.3°F27.4°C 71.4°F21.9°C 72% 3.0 mph SW4.8 kmh SW 4.7 mph7.6 kmh 29.90 in1012.5 mb 0.00 in0.0 mm 0.00 in0.0 mm 0.00 in0.0 mm
12:10 PM 81.6°F27.6°C 71.7°F22.1°C 72% 3.0 mph SSW4.8 kmh SSW 5.3 mph8.5 kmh 29.90 in1012.5 mb 0.00 in0.0 mm 0.00 in0.0 mm 0.00 in0.0 mm
12:15 PM 82.1°F27.8°C 72.0°F22.2°C 72% 2.6 mph SW4.2 kmh SW 3.2 mph5.1 kmh 29.90 in1012.5 mb 0.00 in0.0 mm 0.00 in0.0 mm 0.00 in0.0 mm
12:20 PM 81.9°F27.7°C 72.0°F22.2°C 72% 2.5 mph WSW4.0 kmh WSW 5.3 mph8.5 kmh 29.90 in1012.5 mb 0.00 in0.0 mm 0.00 in0.0 mm 0.00 in0.0 mm
12:25 PM 82.1°F27.8°C 72.2°F22.3°C 72% 2.2 mph SSW3.5 kmh SSW 4.2 mph6.8 kmh 29.89 in1012.2 mb 0.00 in0.0 mm 0.00 in0.0 mm 0.00 in0.0 mm
12:30 PM 82.0°F27.8°C 72.0°F22.2°C 72% 3.7 mph SW6.0 kmh SW 6.8 mph10.9 kmh 29.89 in1012.2 mb 0.00 in0.0 mm 0.00 in0.0 mm 0.00 in0.0 mm
12:35 PM 81.6°F27.6°C 71.7°F22.1°C 72% 3.0 mph SW4.8 kmh SW 5.8 mph9.3 kmh 29.89 in1012.2 mb 0.00 in0.0 mm 0.00 in0.0 mm 0.00 in0.0 mm
12:40 PM 81.6°F27.6°C 71.6°F22.0°C 72% 2.8 mph SW4.5 kmh SW 3.7 mph6.0 kmh 29.88 in1011.9 mb 0.00 in0.0 mm 0.00 in0.0 mm 0.00 in0.0 mm
12:45 PM 81.7°F27.6°C 71.6°F22.0°C 72% 2.4 mph SW3.9 kmh SW 4.2 mph6.8 kmh 29.88 in1011.9 mb 0.00 in0.0 mm 0.00 in0.0 mm 0.00 in0.0 mm
12:50 PM 82.0°F27.8°C 72.1°F22.3°C 72% 2.3 mph WSW3.7 kmh WSW 4.2 mph6.8 kmh 29.88 in1011.9 mb 0.00 in0.0 mm 0.00 in0.0 mm 0.00 in0.0 mm
12:55 PM 81.8°F27.7°C 71.9°F22.2°C 72% 3.2 mph SW5.1 kmh SW 5.3 mph8.5 kmh 29.88 in1011.9 mb 0.00 in0.0 mm 0.00 in0.0 mm 0.00 in0.0 mm
01:00 PM 81.9°F27.7°C 72.0°F22.2°C 72% 2.3 mph SW3.7 kmh SW 4.7 mph7.6 kmh 29.88 in1011.9 mb 0.00 in0.0 mm 0.00 in0.0 mm 0.00 in0.0 mm
01:05 PM 82.1°F27.8°C 72.2°F22.3°C 72% 2.4 mph SW3.9 kmh SW 4.7 mph7.6 kmh 29.88 in1011.9 mb 0.00 in0.0 mm 0.00 in0.0 mm 0.00 in0.0 mm
01:10 PM 81.9°F27.7°C 72.2°F22.3°C 73% 2.1 mph SW3.4 kmh SW 4.2 mph6.8 kmh 29.88 in1011.9 mb 0.00 in0.0 mm 0.00 in0.0 mm 0.00 in0.0 mm
01:15 PM 82.1°F27.8°C 72.3°F22.4°C 72% 3.2 mph SW5.1 kmh SW 5.3 mph8.5 kmh 29.87 in1011.5 mb 0.00 in0.0 mm 0.00 in0.0 mm 0.00 in0.0 mm
01:20 PM 81.9°F27.7°C 72.4°F22.4°C 73% 3.4 mph SW5.5 kmh SW 5.3 mph8.5 kmh 29.87 in1011.5 mb 0.00 in0.0 mm 0.00 in0.0 mm 0.00 in0.0 mm
01:25 PM 81.5°F27.5°C 72.0°F22.2°C 73% 4.3 mph SW6.9 kmh SW 6.3 mph10.1 kmh 29.87 in1011.5 mb 0.00 in0.0 mm 0.00 in0.0 mm 0.00 in0.0 mm
01:30 PM 81.2°F27.3°C 71.8°F22.1°C 73% 3.7 mph WSW6.0 kmh WSW 5.8 mph9.3 kmh 29.86 in1011.2 mb 0.00 in0.0 mm 0.00 in0.0 mm 0.00 in0.0 mm
01:35 PM 81.0°F27.2°C 71.9°F22.2°C 74% 3.6 mph WSW5.8 kmh WSW 5.8 mph9.3 kmh 29.86 in1011.2 mb 0.00 in0.0 mm 0.00 in0.0 mm 0.00 in0.0 mm
01:40 PM 81.1°F27.3°C 72.0°F22.2°C 74% 3.1 mph SSW5.0 kmh SSW 4.7 mph7.6 kmh 29.86 in1011.2 mb 0.00 in0.0 mm 0.00 in0.0 mm 0.00 in0.0 mm
01:45 PM 81.1°F27.3°C 72.0°F22.2°C 74% 4.2 mph SW6.8 kmh SW 6.3 mph10.1 kmh 29.86 in1011.2 mb 0.00 in0.0 mm 0.00 in0.0 mm 0.00 in0.0 mm
01:50 PM 81.0°F27.2°C 71.9°F22.2°C 74% 4.1 mph SW6.6 kmh SW 6.8 mph10.9 kmh 29.86 in1011.2 mb 0.00 in0.0 mm 0.00 in0.0 mm 0.00 in0.0 mm
01:55 PM 80.8°F27.1°C 71.7°F22.1°C 74% 3.7 mph WSW6.0 kmh WSW 7.3 mph11.7 kmh 29.85 in1010.8 mb 0.00 in0.0 mm 0.00 in0.0 mm 0.00 in0.0 mm
02:00 PM 80.5°F26.9°C 71.8°F22.1°C 75% 3.3 mph WSW5.3 kmh WSW 4.7 mph7.6 kmh 29.85 in1010.8 mb 0.00 in0.0 mm 0.00 in0.0 mm 0.00 in0.0 mm
02:05 PM 80.6°F27.0°C 71.9°F22.2°C 75% 3.4 mph WSW5.5 kmh WSW 5.3 mph8.5 kmh 29.85 in1010.8 mb 0.00 in0.0 mm 0.00 in0.0 mm 0.00 in0.0 mm
02:10 PM 80.4°F26.9°C 71.7°F22.1°C 75% 2.9 mph SW4.7 kmh SW 6.8 mph10.9 kmh 29.85 in1010.8 mb 0.00 in0.0 mm 0.00 in0.0 mm 0.00 in0.0 mm
02:15 PM 80.4°F26.9°C 71.7°F22.1°C 75% 4.3 mph SW6.9 kmh SW 7.8 mph12.6 kmh 29.85 in1010.8 mb 0.00 in0.0 mm 0.00 in0.0 mm 0.00 in0.0 mm
02:20 PM 79.8°F26.6°C 71.5°F21.9°C 76% 2.7 mph WSW4.3 kmh WSW 4.7 mph7.6 kmh 29.84 in1010.5 mb 0.00 in0.0 mm 0.00 in0.0 mm 0.00 in0.0 mm
02:25 PM 80.2°F26.8°C 71.8°F22.1°C 76% 3.6 mph SW5.8 kmh SW 6.8 mph10.9 kmh 29.84 in1010.5 mb 0.00 in0.0 mm 0.00 in0.0 mm 0.00 in0.0 mm
02:30 PM 79.9°F26.6°C 71.5°F21.9°C 76% 4.4 mph SW7.1 kmh SW 6.8 mph10.9 kmh 29.84 in1010.5 mb 0.00 in0.0 mm 0.00 in0.0 mm 0.00 in0.0 mm
02:35 PM 79.4°F26.3°C 71.4°F21.9°C 77% 4.2 mph SW6.8 kmh SW 5.8 mph9.3 kmh 29.84 in1010.5 mb 0.00 in0.0 mm 0.00 in0.0 mm 0.00 in0.0 mm
02:40 PM 79.6°F26.4°C 71.8°F22.1°C 77% 3.9 mph WSW6.3 kmh WSW 6.3 mph10.1 kmh 29.84 in1010.5 mb 0.00 in0.0 mm 0.00 in0.0 mm 0.00 in0.0 mm
02:45 PM 80.3°F26.8°C 72.0°F22.2°C 76% 3.6 mph SW5.8 kmh SW 7.3 mph11.7 kmh 29.84 in1010.5 mb 0.00 in0.0 mm 0.00 in0.0 mm 0.00 in0.0 mm
02:50 PM 80.3°F26.8°C 72.0°F22.2°C 76% 3.4 mph WSW5.5 kmh WSW 7.8 mph12.6 kmh 29.83 in1010.2 mb 0.00 in0.0 mm 0.00 in0.0 mm 0.00 in0.0 mm
02:55 PM 79.6°F26.4°C 71.5°F21.9°C 76% 4.3 mph SW6.9 kmh SW 7.3 mph11.7 kmh 29.83 in1010.2 mb 0.00 in0.0 mm 0.00 in0.0 mm 0.00 in0.0 mm
03:00 PM 79.7°F26.5°C 71.8°F22.1°C 77% 3.0 mph SW4.8 kmh SW 4.7 mph7.6 kmh 29.83 in1010.2 mb 0.00 in0.0 mm 0.00 in0.0 mm 0.00 in0.0 mm
03:05 PM 79.1°F26.2°C 71.6°F22.0°C 78% 3.5 mph WSW5.6 kmh WSW 6.8 mph10.9 kmh 29.83 in1010.2 mb 0.00 in0.0 mm 0.00 in0.0 mm 0.00 in0.0 mm
03:10 PM 78.4°F25.8°C 71.4°F21.9°C 79% 3.0 mph SW4.8 kmh SW 5.8 mph9.3 kmh 29.83 in1010.2 mb 0.00 in0.0 mm 0.00 in0.0 mm 0.00 in0.0 mm
03:15 PM 78.5°F25.8°C 71.5°F21.9°C 79% 3.5 mph WSW5.6 kmh WSW 6.3 mph10.1 kmh 29.82 in1009.8 mb 0.00 in0.0 mm 0.00 in0.0 mm 0.00 in0.0 mm
03:20 PM 78.4°F25.8°C 71.4°F21.9°C 79% 4.1 mph WSW6.6 kmh WSW 7.3 mph11.7 kmh 29.82 in1009.8 mb 0.00 in0.0 mm 0.00 in0.0 mm 0.00 in0.0 mm
03:25 PM 78.4°F25.8°C 71.6°F22.0°C 80% 3.9 mph WSW6.3 kmh WSW 6.8 mph10.9 kmh 29.82 in1009.8 mb 0.00 in0.0 mm 0.00 in0.0 mm 0.00 in0.0 mm
03:30 PM 78.1°F25.6°C 71.4°F21.9°C 80% 3.9 mph WSW6.3 kmh WSW 5.3 mph8.5 kmh 29.82 in1009.8 mb 0.00 in0.0 mm 0.00 in0.0 mm 0.00 in0.0 mm
03:35 PM 78.1°F25.6°C 71.4°F21.9°C 80% 3.9 mph WSW6.3 kmh WSW 7.3 mph11.7 kmh 29.82 in1009.8 mb 0.00 in0.0 mm 0.00 in0.0 mm 0.00 in0.0 mm
03:40 PM 78.1°F25.6°C 71.4°F21.9°C 80% 3.6 mph SW5.8 kmh SW 6.8 mph10.9 kmh 29.82 in1009.8 mb 0.00 in0.0 mm 0.00 in0.0 mm 0.00 in0.0 mm
03:45 PM 77.8°F25.4°C 71.2°F21.8°C 80% 4.1 mph SW6.6 kmh SW 6.8 mph10.9 kmh 29.82 in1009.8 mb 0.00 in0.0 mm 0.00 in0.0 mm 0.00 in0.0 mm
03:50 PM 77.3°F25.2°C 71.2°F21.8°C 81% 3.6 mph WSW5.8 kmh WSW 5.8 mph9.3 kmh 29.81 in1009.5 mb 0.00 in0.0 mm 0.00 in0.0 mm 0.00 in0.0 mm
03:55 PM 76.9°F24.9°C 71.1°F21.7°C 82% 3.3 mph SW5.3 kmh SW 4.7 mph7.6 kmh 29.81 in1009.5 mb 0.00 in0.0 mm 0.00 in0.0 mm 0.00 in0.0 mm
04:00 PM 76.7°F24.8°C 71.1°F21.7°C 83% 4.6 mph SW7.4 kmh SW 8.3 mph13.4 kmh 29.81 in1009.5 mb 0.00 in0.0 mm 0.00 in0.0 mm 0.00 in0.0 mm
04:05 PM 76.6°F24.8°C 71.0°F21.7°C 83% 4.0 mph SW6.4 kmh SW 5.8 mph9.3 kmh 29.81 in1009.5 mb 0.00 in0.0 mm 0.00 in0.0 mm 0.00 in0.0 mm
04:10 PM 76.8°F24.9°C 71.2°F21.8°C 83% 4.5 mph WSW7.2 kmh WSW 7.8 mph12.6 kmh 29.81 in1009.5 mb 0.00 in0.0 mm 0.00 in0.0 mm 0.00 in0.0 mm
04:15 PM 76.6°F24.8°C 71.0°F21.7°C 83% 4.8 mph SW7.7 kmh SW 8.3 mph13.4 kmh 29.81 in1009.5 mb 0.00 in0.0 mm 0.00 in0.0 mm 0.00 in0.0 mm
04:20 PM 76.4°F24.7°C 71.2°F21.8°C 84% 4.9 mph SSW7.9 kmh SSW 7.3 mph11.7 kmh 29.81 in1009.5 mb 0.00 in0.0 mm 0.00 in0.0 mm 0.00 in0.0 mm
04:25 PM 76.4°F24.7°C 71.2°F21.8°C 84% 3.7 mph SW6.0 kmh SW 7.8 mph12.6 kmh 29.81 in1009.5 mb 0.00 in0.0 mm 0.00 in0.0 mm 0.00 in0.0 mm
04:30 PM 76.1°F24.5°C 71.1°F21.7°C 84% 3.5 mph SW5.6 kmh SW 5.8 mph9.3 kmh 29.80 in1009.1 mb 0.00 in0.0 mm 0.00 in0.0 mm 0.00 in0.0 mm
04:35 PM 75.8°F24.3°C 71.0°F21.7°C 85% 3.5 mph WSW5.6 kmh WSW 7.3 mph11.7 kmh 29.80 in1009.1 mb 0.00 in0.0 mm 0.00 in0.0 mm 0.00 in0.0 mm
04:40 PM 75.7°F24.3°C 71.2°F21.8°C 86% 5.0 mph SW8.0 kmh SW 7.8 mph12.6 kmh 29.80 in1009.1 mb 0.00 in0.0 mm 0.00 in0.0 mm 0.00 in0.0 mm
04:45 PM 75.6°F24.2°C 71.1°F21.7°C 86% 4.1 mph SW6.6 kmh SW 6.8 mph10.9 kmh 29.80 in1009.1 mb 0.00 in0.0 mm 0.00 in0.0 mm 0.00 in0.0 mm
04:50 PM 75.6°F24.2°C 71.1°F21.7°C 86% 5.1 mph SW8.2 kmh SW 7.8 mph12.6 kmh 29.80 in1009.1 mb 0.00 in0.0 mm 0.00 in0.0 mm 0.00 in0.0 mm
04:55 PM 75.6°F24.2°C 71.1°F21.7°C 86% 4.1 mph WSW6.6 kmh WSW 9.4 mph15.1 kmh 29.80 in1009.1 mb 0.00 in0.0 mm 0.00 in0.0 mm 0.00 in0.0 mm
05:00 PM 75.5°F24.2°C 71.3°F21.8°C 87% 5.3 mph WSW8.5 kmh WSW 9.4 mph15.1 kmh 29.80 in1009.1 mb 0.00 in0.0 mm 0.00 in0.0 mm 0.00 in0.0 mm
05:05 PM 75.4°F24.1°C 71.3°F21.8°C 87% 4.9 mph SW7.9 kmh SW 8.3 mph13.4 kmh 29.80 in1009.1 mb 0.00 in0.0 mm 0.00 in0.0 mm 0.00 in0.0 mm
05:10 PM 75.4°F24.1°C 71.3°F21.8°C 87% 4.5 mph SW7.2 kmh SW 7.3 mph11.7 kmh 29.80 in1009.1 mb 0.00 in0.0 mm 0.00 in0.0 mm 0.00 in0.0 mm
05:15 PM 75.4°F24.1°C 71.3°F21.8°C 87% 3.7 mph WSW6.0 kmh WSW 5.8 mph9.3 kmh 29.80 in1009.1 mb 0.00 in0.0 mm 0.00 in0.0 mm 0.00 in0.0 mm
05:20 PM 75.2°F24.0°C 71.3°F21.8°C 88% 5.0 mph SW8.0 kmh SW 8.9 mph14.3 kmh 29.80 in1009.1 mb 0.00 in0.0 mm 0.00 in0.0 mm 0.00 in0.0 mm
05:25 PM 75.0°F23.9°C 71.2°F21.8°C 88% 4.4 mph SW7.1 kmh SW 7.3 mph11.7 kmh 29.80 in1009.1 mb 0.00 in0.0 mm 0.00 in0.0 mm 0.00 in0.0 mm
05:30 PM 75.0°F23.9°C 71.2°F21.8°C 88% 3.9 mph WSW6.3 kmh WSW 6.3 mph10.1 kmh 29.80 in1009.1 mb 0.00 in0.0 mm 0.00 in0.0 mm 0.00 in0.0 mm
05:35 PM 74.9°F23.8°C 71.2°F21.8°C 88% 3.6 mph WSW5.8 kmh WSW 5.3 mph8.5 kmh 29.80 in1009.1 mb 0.00 in0.0 mm 0.00 in0.0 mm 0.00 in0.0 mm
05:40 PM 74.8°F23.8°C 71.3°F21.8°C 89% 4.3 mph SW6.9 kmh SW 6.3 mph10.1 kmh 29.79 in1008.8 mb 0.00 in0.0 mm 0.00 in0.0 mm 0.00 in0.0 mm
05:45 PM 74.8°F23.8°C 71.3°F21.8°C 89% 4.3 mph WSW6.9 kmh WSW 7.3 mph11.7 kmh 29.79 in1008.8 mb 0.00 in0.0 mm 0.00 in0.0 mm 0.00 in0.0 mm
05:50 PM 74.8°F23.8°C 71.3°F21.8°C 89% 3.5 mph SW5.6 kmh SW 7.3 mph11.7 kmh 29.79 in1008.8 mb 0.00 in0.0 mm 0.00 in0.0 mm 0.00 in0.0 mm
05:55 PM 74.8°F23.8°C 71.3°F21.8°C 89% 4.1 mph SW6.6 kmh SW 7.3 mph11.7 kmh 29.79 in1008.8 mb 0.00 in0.0 mm 0.00 in0.0 mm 0.00 in0.0 mm
06:00 PM 74.8°F23.8°C 71.3°F21.8°C 89% 3.5 mph WSW5.6 kmh WSW 6.8 mph10.9 kmh 29.79 in1008.8 mb 0.00 in0.0 mm 0.00 in0.0 mm 0.00 in0.0 mm
06:05 PM 74.8°F23.8°C 71.3°F21.8°C 89% 3.6 mph SW5.8 kmh SW 5.8 mph9.3 kmh 29.79 in1008.8 mb 0.00 in0.0 mm 0.00 in0.0 mm 0.00 in0.0 mm
06:10 PM 74.7°F23.7°C 71.2°F21.8°C 89% 4.2 mph SW6.8 kmh SW 7.8 mph12.6 kmh 29.79 in1008.8 mb 0.00 in0.0 mm 0.00 in0.0 mm 0.00 in0.0 mm
06:15 PM 74.7°F23.7°C 71.3°F21.8°C 89% 4.2 mph WSW6.8 kmh WSW 6.8 mph10.9 kmh 29.79 in1008.8 mb 0.00 in0.0 mm 0.00 in0.0 mm 0.00 in0.0 mm
06:20 PM 74.5°F23.6°C 71.4°F21.9°C 90% 4.3 mph SW6.9 kmh SW 7.3 mph11.7 kmh 29.79 in1008.8 mb 0.00 in0.0 mm 0.00 in0.0 mm 0.00 in0.0 mm
06:25 PM 74.5°F23.6°C 71.4°F21.9°C 90% 4.5 mph WSW7.2 kmh WSW 7.3 mph11.7 kmh 29.79 in1008.8 mb 0.00 in0.0 mm 0.00 in0.0 mm 0.00 in0.0 mm
06:30 PM 74.5°F23.6°C 71.4°F21.9°C 90% 4.3 mph WSW6.9 kmh WSW 7.8 mph12.6 kmh 29.79 in1008.8 mb 0.00 in0.0 mm 0.00 in0.0 mm 0.00 in0.0 mm
06:35 PM 74.5°F23.6°C 71.4°F21.9°C 90% 4.6 mph WSW7.4 kmh WSW 8.3 mph13.4 kmh 29.79 in1008.8 mb 0.00 in0.0 mm 0.00 in0.0 mm 0.00 in0.0 mm
06:40 PM 74.5°F23.6°C 71.4°F21.9°C 90% 3.8 mph WSW6.1 kmh WSW 5.3 mph8.5 kmh 29.79 in1008.8 mb 0.00 in0.0 mm 0.00 in0.0 mm 0.00 in0.0 mm
06:45 PM 74.5°F23.6°C 71.4°F21.9°C 90% 4.2 mph SW6.8 kmh SW 6.8 mph10.9 kmh 29.79 in1008.8 mb 0.00 in0.0 mm 0.00 in0.0 mm 0.00 in0.0 mm
06:50 PM 74.5°F23.6°C 71.4°F21.9°C 90% 3.3 mph WSW5.3 kmh WSW 6.3 mph10.1 kmh 29.79 in1008.8 mb 0.00 in0.0 mm 0.00 in0.0 mm 0.00 in0.0 mm
06:55 PM 74.5°F23.6°C 71.4°F21.9°C 90% 4.0 mph WSW6.4 kmh WSW 8.3 mph13.4 kmh 29.79 in1008.8 mb 0.00 in0.0 mm 0.00 in0.0 mm 0.00 in0.0 mm
07:00 PM 74.7°F23.7°C 71.5°F21.9°C 90% 4.3 mph WSW6.9 kmh WSW 6.3 mph10.1 kmh 29.79 in1008.8 mb 0.00 in0.0 mm 0.00 in0.0 mm 0.00 in0.0 mm
07:05 PM 74.7°F23.7°C 71.6°F22.0°C 90% 3.7 mph WSW6.0 kmh WSW 5.8 mph9.3 kmh 29.79 in1008.8 mb 0.00 in0.0 mm 0.00 in0.0 mm 0.00 in0.0 mm
07:10 PM 74.7°F23.7°C 71.5°F21.9°C 90% 3.4 mph W5.5 kmh W 5.8 mph9.3 kmh 29.79 in1008.8 mb 0.00 in0.0 mm 0.00 in0.0 mm 0.00 in0.0 mm
07:15 PM 74.8°F23.8°C 71.3°F21.8°C 89% 3.8 mph WSW6.1 kmh WSW 5.8 mph9.3 kmh 29.79 in1008.8 mb 0.00 in0.0 mm 0.00 in0.0 mm 0.00 in0.0 mm
07:20 PM 74.8°F23.8°C 71.3°F21.8°C 89% 4.3 mph WSW6.9 kmh WSW 7.3 mph11.7 kmh 29.79 in1008.8 mb 0.00 in0.0 mm 0.00 in0.0 mm 0.00 in0.0 mm
07:25 PM 75.0°F23.9°C 71.3°F21.8°C 89% 4.3 mph SW6.9 kmh SW 8.3 mph13.4 kmh 29.79 in1008.8 mb 0.00 in0.0 mm 0.00 in0.0 mm 0.00 in0.0 mm
07:30 PM 75.1°F23.9°C 71.3°F21.8°C 88% 4.1 mph SW6.6 kmh SW 6.3 mph10.1 kmh 29.78 in1008.5 mb 0.00 in0.0 mm 0.00 in0.0 mm 0.00 in0.0 mm
07:35 PM 75.2°F24.0°C 71.4°F21.9°C 88% 4.1 mph WSW6.6 kmh WSW 7.3 mph11.7 kmh 29.78 in1008.5 mb 0.00 in0.0 mm 0.00 in0.0 mm 0.00 in0.0 mm
07:40 PM 75.2°F24.0°C 71.4°F21.9°C 88% 4.1 mph WSW6.6 kmh WSW 5.8 mph9.3 kmh 29.78 in1008.5 mb 0.00 in0.0 mm 0.00 in0.0 mm 0.00 in0.0 mm
07:45 PM 75.2°F24.0°C 71.4°F21.9°C 88% 3.6 mph SW5.8 kmh SW 5.3 mph8.5 kmh 29.78 in1008.5 mb 0.00 in0.0 mm 0.00 in0.0 mm 0.00 in0.0 mm
07:50 PM 75.2°F24.0°C 71.4°F21.9°C 88% 3.8 mph SW6.1 kmh SW 6.8 mph10.9 kmh 29.78 in1008.5 mb 0.00 in0.0 mm 0.00 in0.0 mm 0.00 in0.0 mm
07:55 PM 75.2°F24.0°C 71.4°F21.9°C 88% 3.2 mph W5.1 kmh W 5.8 mph9.3 kmh 29.78 in1008.5 mb 0.00 in0.0 mm 0.00 in0.0 mm 0.00 in0.0 mm
08:00 PM 75.1°F23.9°C 71.3°F21.8°C 88% 2.7 mph W4.3 kmh W 4.7 mph7.6 kmh 29.78 in1008.5 mb 0.00 in0.0 mm 0.00 in0.0 mm 0.00 in0.0 mm
08:05 PM 75.0°F23.9°C 71.2°F21.8°C 88% 2.6 mph WSW4.2 kmh WSW 4.7 mph7.6 kmh 29.79 in1008.8 mb 0.00 in0.0 mm 0.00 in0.0 mm 0.00 in0.0 mm
08:10 PM 74.9°F23.8°C 71.1°F21.7°C 88% 3.2 mph WSW5.1 kmh WSW 5.8 mph9.3 kmh 29.79 in1008.8 mb 0.00 in0.0 mm 0.00 in0.0 mm 0.00 in0.0 mm
08:15 PM 74.8°F23.8°C 71.3°F21.8°C 89% 2.6 mph WSW4.2 kmh WSW 4.7 mph7.6 kmh 29.79 in1008.8 mb 0.00 in0.0 mm 0.00 in0.0 mm 0.00 in0.0 mm
08:20 PM 74.6°F23.7°C 71.2°F21.8°C 89% 2.5 mph W4.0 kmh W 3.7 mph6.0 kmh 29.79 in1008.8 mb 0.00 in0.0 mm 0.00 in0.0 mm 0.00 in0.0 mm
08:25 PM 74.5°F23.6°C 71.0°F21.7°C 89% 2.5 mph WSW4.0 kmh WSW 3.7 mph6.0 kmh 29.79 in1008.8 mb 0.00 in0.0 mm 0.00 in0.0 mm 0.00 in0.0 mm
08:30 PM 74.4°F23.6°C 71.2°F21.8°C 90% 3.1 mph SW5.0 kmh SW 6.3 mph10.1 kmh 29.79 in1008.8 mb 0.00 in0.0 mm 0.00 in0.0 mm 0.00 in0.0 mm
08:35 PM 74.3°F23.5°C 71.2°F21.8°C 90% 3.0 mph WSW4.8 kmh WSW 4.2 mph6.8 kmh 29.79 in1008.8 mb 0.00 in0.0 mm 0.00 in0.0 mm 0.00 in0.0 mm
08:40 PM 74.3°F23.5°C 71.2°F21.8°C 90% 3.0 mph WSW4.8 kmh WSW 4.2 mph6.8 kmh 29.80 in1009.1 mb 0.00 in0.0 mm 0.00 in0.0 mm 0.00 in0.0 mm
08:45 PM 74.3°F23.5°C 71.2°F21.8°C 90% 3.0 mph SW4.8 kmh SW 5.3 mph8.5 kmh 29.80 in1009.1 mb 0.00 in0.0 mm 0.00 in0.0 mm 0.00 in0.0 mm
08:50 PM 74.3°F23.5°C 71.2°F21.8°C 90% 3.2 mph SW5.1 kmh SW 5.3 mph8.5 kmh 29.80 in1009.1 mb 0.00 in0.0 mm 0.00 in0.0 mm 0.00 in0.0 mm
08:55 PM 74.3°F23.5°C 71.2°F21.8°C 90% 3.0 mph SW4.8 kmh SW 6.3 mph10.1 kmh 29.80 in1009.1 mb 0.00 in0.0 mm 0.00 in0.0 mm 0.00 in0.0 mm
09:00 PM 74.3°F23.5°C 71.2°F21.8°C 90% 2.2 mph SW3.5 kmh SW 3.2 mph5.1 kmh 29.80 in1009.1 mb 0.00 in0.0 mm 0.00 in0.0 mm 0.00 in0.0 mm
09:05 PM 74.3°F23.5°C 71.2°F21.8°C 90% 2.4 mph WSW3.9 kmh WSW 4.7 mph7.6 kmh 29.80 in1009.1 mb 0.00 in0.0 mm 0.00 in0.0 mm 0.00 in0.0 mm
09:10 PM 74.3°F23.5°C 71.2°F21.8°C 90% 2.5 mph WSW4.0 kmh WSW 3.7 mph6.0 kmh 29.80 in1009.1 mb 0.00 in0.0 mm 0.00 in0.0 mm 0.00 in0.0 mm
09:15 PM 74.1°F23.4°C 71.0°F21.7°C 90% 2.0 mph SW3.2 kmh SW 3.2 mph5.1 kmh 29.80 in1009.1 mb 0.00 in0.0 mm 0.00 in0.0 mm 0.00 in0.0 mm
09:20 PM 74.0°F23.3°C 70.9°F21.6°C 90% 2.5 mph SW4.0 kmh SW 4.7 mph7.6 kmh 29.80 in1009.1 mb 0.00 in0.0 mm 0.00 in0.0 mm 0.00 in0.0 mm
09:25 PM 73.9°F23.3°C 71.1°F21.7°C 91% 2.7 mph WSW4.3 kmh WSW 3.7 mph6.0 kmh 29.79 in1008.8 mb 0.00 in0.0 mm 0.00 in0.0 mm 0.00 in0.0 mm
09:30 PM 73.8°F23.2°C 71.0°F21.7°C 91% 2.6 mph SW4.2 kmh SW 4.2 mph6.8 kmh 29.79 in1008.8 mb 0.00 in0.0 mm 0.00 in0.0 mm 0.00 in0.0 mm
09:35 PM 73.8°F23.2°C 71.0°F21.7°C 91% 1.1 mph SW1.8 kmh SW 2.2 mph3.5 kmh 29.79 in1008.8 mb 0.00 in0.0 mm 0.00 in0.0 mm 0.00 in0.0 mm
09:40 PM 73.6°F23.1°C 70.8°F21.6°C 91% 1.4 mph WSW2.3 kmh WSW 3.7 mph6.0 kmh 29.79 in1008.8 mb 0.00 in0.0 mm 0.00 in0.0 mm 0.00 in0.0 mm
09:45 PM 73.6°F23.1°C 70.8°F21.6°C 91% 2.5 mph SW4.0 kmh SW 4.2 mph6.8 kmh 29.79 in1008.8 mb 0.00 in0.0 mm 0.00 in0.0 mm 0.00 in0.0 mm
09:50 PM 73.6°F23.1°C 70.8°F21.6°C 91% 1.2 mph SSW1.9 kmh SSW 2.7 mph4.3 kmh 29.79 in1008.8 mb 0.00 in0.0 mm 0.00 in0.0 mm 0.00 in0.0 mm
09:55 PM 73.6°F23.1°C 70.8°F21.6°C 91% 0.4 mph WSW0.6 kmh WSW 2.2 mph3.5 kmh 29.79 in1008.8 mb 0.00 in0.0 mm 0.00 in0.0 mm 0.00 in0.0 mm
10:00 PM 73.6°F23.1°C 70.8°F21.6°C 91% 1.5 mph W2.4 kmh W 2.7 mph4.3 kmh 29.79 in1008.8 mb 0.00 in0.0 mm 0.00 in0.0 mm 0.00 in0.0 mm
10:05 PM 73.7°F23.2°C 70.7°F21.5°C 91% 2.4 mph W3.9 kmh W 3.7 mph6.0 kmh 29.79 in1008.8 mb 0.00 in0.0 mm 0.00 in0.0 mm 0.00 in0.0 mm
10:10 PM 73.9°F23.3°C 70.4°F21.3°C 89% 2.5 mph W4.0 kmh W 3.2 mph5.1 kmh 29.79 in1008.8 mb 0.00 in0.0 mm 0.00 in0.0 mm 0.00 in0.0 mm
10:15 PM 74.2°F23.4°C 70.2°F21.2°C 87% 2.5 mph WSW4.0 kmh WSW 3.2 mph5.1 kmh 29.79 in1008.8 mb 0.00 in0.0 mm 0.00 in0.0 mm 0.00 in0.0 mm
10:20 PM 74.7°F23.7°C 69.9°F21.1°C 85% 1.1 mph SW1.8 kmh SW 3.2 mph5.1 kmh 29.79 in1008.8 mb 0.00 in0.0 mm 0.00 in0.0 mm 0.00 in0.0 mm
10:25 PM 75.0°F23.9°C 69.5°F20.8°C 83% 2.0 mph WSW3.2 kmh WSW 3.7 mph6.0 kmh 29.79 in1008.8 mb 0.00 in0.0 mm 0.00 in0.0 mm 0.00 in0.0 mm
10:30 PM 75.3°F24.1°C 69.2°F20.7°C 81% 1.8 mph WSW2.9 kmh WSW 2.7 mph4.3 kmh 29.80 in1009.1 mb 0.00 in0.0 mm 0.00 in0.0 mm 0.00 in0.0 mm
10:35 PM 75.4°F24.1°C 69.2°F20.7°C 81% 1.5 mph WSW2.4 kmh WSW 4.2 mph6.8 kmh 29.80 in1009.1 mb 0.00 in0.0 mm 0.00 in0.0 mm 0.00 in0.0 mm
10:40 PM 75.4°F24.1°C 69.2°F20.7°C 81% 0.9 mph W1.4 kmh W 2.2 mph3.5 kmh 29.80 in1009.1 mb 0.00 in0.0 mm 0.00 in0.0 mm 0.00 in0.0 mm
10:45 PM 75.4°F24.1°C 69.2°F20.7°C 81% Calm Calm -- 29.80 in1009.1 mb 0.00 in0.0 mm 0.00 in0.0 mm 0.00 in0.0 mm
10:50 PM 75.4°F24.1°C 69.2°F20.7°C 81% 0.9 mph WSW1.4 kmh WSW 2.2 mph3.5 kmh 29.80 in1009.1 mb 0.00 in0.0 mm 0.00 in0.0 mm 0.00 in0.0 mm
10:55 PM 75.4°F24.1°C 69.7°F20.9°C 83% 1.6 mph WSW2.6 kmh WSW 2.7 mph4.3 kmh 29.79 in1008.8 mb 0.00 in0.0 mm 0.00 in0.0 mm 0.00 in0.0 mm
11:00 PM 74.8°F23.8°C 69.5°F20.8°C 84% 1.4 mph W2.3 kmh W 2.2 mph3.5 kmh 29.79 in1008.8 mb 0.01 in0.3 mm 0.01 in0.3 mm 0.01 in0.3 mm
11:05 PM 74.1°F23.4°C 69.4°F20.8°C 85% 0.9 mph W1.4 kmh W 2.7 mph4.3 kmh 29.79 in1008.8 mb 0.02 in0.5 mm 0.12 in3.0 mm 0.02 in0.5 mm
11:10 PM 73.7°F23.2°C 69.5°F20.8°C 87% 1.3 mph W2.1 kmh W 4.2 mph6.8 kmh 29.79 in1008.8 mb 0.02 in0.5 mm 0.00 in0.0 mm 0.02 in0.5 mm
11:15 PM 73.3°F22.9°C 69.3°F20.7°C 87% 1.2 mph WSW1.9 kmh WSW 2.7 mph4.3 kmh 29.79 in1008.8 mb 0.02 in0.5 mm 0.00 in0.0 mm 0.02 in0.5 mm
11:20 PM 73.2°F22.9°C 69.4°F20.8°C 88% 0.7 mph WSW1.1 kmh WSW 3.2 mph5.1 kmh 29.79 in1008.8 mb 0.02 in0.5 mm 0.00 in0.0 mm 0.02 in0.5 mm
11:25 PM 73.0°F22.8°C 69.2°F20.7°C 88% 0.3 mph W0.5 kmh W 2.7 mph4.3 kmh 29.79 in1008.8 mb 0.02 in0.5 mm 0.00 in0.0 mm 0.02 in0.5 mm
11:30 PM 73.0°F22.8°C 69.3°F20.7°C 88% 0.1 mph N0.2 kmh N 1.7 mph2.7 kmh 29.79 in1008.8 mb 0.04 in1.0 mm 0.24 in6.1 mm 0.04 in1.0 mm
11:35 PM 72.8°F22.7°C 69.6°F20.9°C 90% Calm Calm -- 29.79 in1008.8 mb 0.04 in1.0 mm 0.00 in0.0 mm 0.04 in1.0 mm
11:40 PM 72.5°F22.5°C 69.8°F21.0°C 91% 0.1 mph N0.2 kmh N 1.7 mph2.7 kmh 29.79 in1008.8 mb 0.04 in1.0 mm 0.00 in0.0 mm 0.04 in1.0 mm
11:45 PM 72.2°F22.3°C 69.6°F20.9°C 91% Calm Calm -- 29.79 in1008.8 mb 0.04 in1.0 mm 0.00 in0.0 mm 0.04 in1.0 mm
11:50 PM 72.1°F22.3°C 69.6°F20.9°C 92% Calm Calm -- 29.78 in1008.5 mb 0.04 in1.0 mm 0.00 in0.0 mm 0.04 in1.0 mm
11:55 PM 72.0°F22.2°C 69.6°F20.9°C 92% 0.4 mph SW0.6 kmh SW 1.7 mph2.7 kmh 29.78 in1008.5 mb 0.04 in1.0 mm 0.00 in0.0 mm 0.04 in1.0 mm